Time;durP1;ratioP1;P1;durP2;ratioP2;P2;SDS_P1;SDS_P2;PMS_P1;PMS_P2;Temp;Humidity;BMP_temperature;BMP_pressure;BME280_temperature;BME280_humidity;BME280_pressure;Samples;Min_cycle;Max_cycle;Signal;HPM_P1;HPM_P2
2021/11/23 00:01:37;;;;;;;3.70;2.60;;;;;;;9.59;53.82;100067.91;5087351;28;20072;-64
2021/11/23 00:04:04;;;;;;;6.07;2.30;;;;;;;9.66;53.84;100070.38;5078285;28;20055;-64
2021/11/23 00:06:34;;;;;;;3.50;2.20;;;;;;;9.69;54.02;100070.66;5088474;28;20514;-65
2021/11/23 00:09:02;;;;;;;;;;;;;;;9.70;53.41;100055.56;5084003;28;20092;-65
2021/11/23 00:11:29;;;;;;;4.37;1.53;;;;;;;9.71;53.47;100051.69;5085648;28;19932;-69
2021/11/23 00:13:56;;;;;;;3.90;1.70;;;;;;;9.85;53.50;100063.03;5084782;28;20044;-65
2021/11/23 00:16:23;;;;;;;4.37;1.80;;;;;;;9.81;53.51;100042.44;5086538;28;20049;-66
2021/11/23 00:18:50;;;;;;;5.07;1.57;;;;;;;9.96;53.39;100056.28;5086070;28;20094;-68
2021/11/23 00:21:17;;;;;;;2.87;1.53;;;;;;;10.03;53.52;100058.75;5087167;28;20045;-72
2021/11/23 00:23:44;;;;;;;3.53;1.30;;;;;;;10.12;53.40;100058.94;5088903;28;20544;-68
2021/11/23 00:26:11;;;;;;;2.93;1.60;;;;;;;10.12;53.31;100057.00;5085204;28;20106;-71
2021/11/23 00:28:38;;;;;;;2.63;1.60;;;;;;;10.14;53.04;100051.97;5084217;28;20143;-72
2021/11/23 00:31:05;;;;;;;6.03;1.67;;;;;;;10.21;53.11;100069.22;5087165;28;20087;-72
2021/11/23 00:33:40;;;;;;;4.67;2.07;;;;;;;10.24;52.96;100055.81;5086401;28;20084;-70
2021/11/23 00:36:07;;;;;;;5.33;1.70;;;;;;;10.25;53.23;100060.25;5082200;28;20086;-69
2021/11/23 00:38:34;;;;;;;3.43;2.00;;;;;;;10.25;52.88;100049.09;5085388;28;20495;-72
2021/11/23 00:41:01;;;;;;;4.00;1.83;;;;;;;10.24;52.87;100050.22;5072676;28;20045;-69
2021/11/23 00:43:29;;;;;;;6.10;2.10;;;;;;;10.17;52.96;100047.75;5073599;28;20080;-72
2021/11/23 00:45:56;;;;;;;4.83;2.00;;;;;;;10.18;53.10;100055.81;5073081;28;20119;-73
2021/11/23 00:48:22;;;;;;;4.80;2.23;;;;;;;10.10;52.92;100047.25;5073630;28;20131;-73
2021/11/23 00:50:50;;;;;;;4.33;1.90;;;;;;;10.14;53.21;100065.91;5074049;28;20079;-73
2021/11/23 00:53:17;;;;;;;4.57;2.33;;;;;;;10.07;53.15;100057.03;5071876;28;20135;-73
2021/11/23 00:55:44;;;;;;;6.07;2.37;;;;;;;10.08;52.98;100050.31;5073300;28;20471;-76
2021/11/23 00:58:11;;;;;;;6.03;2.30;;;;;;;10.04;53.08;100049.25;5073199;28;20041;-75
2021/11/23 01:00:37;;;;;;;5.97;2.20;;;;;;;10.04;52.98;100054.00;5074096;28;20567;-75
2021/11/23 01:03:04;;;;;;;6.67;2.33;;;;;;;10.02;53.13;100050.69;5065766;28;20055;-76
2021/11/23 01:05:31;;;;;;;8.73;3.00;;;;;;;9.92;53.05;100034.84;5072302;28;20131;-77
2021/11/23 01:07:58;;;;;;;7.13;3.50;;;;;;;9.95;53.08;100034.25;5071896;28;20479;-67
2021/11/23 01:10:25;;;;;;;8.87;3.43;;;;;;;9.88;53.06;100031.78;5073946;28;20102;-69
2021/11/23 01:12:52;;;;;;;7.80;3.10;;;;;;;9.98;53.35;100036.44;5070054;28;20075;-70
2021/11/23 01:15:19;;;;;;;8.23;3.50;;;;;;;9.96;53.21;100044.28;5072004;28;20075;-70
2021/11/23 01:17:50;;;;;;;14.07;4.43;;;;;;;9.88;53.21;100028.16;5072280;28;20090;-69
2021/11/23 01:20:17;;;;;;;8.90;3.70;;;;;;;9.89;53.46;100035.41;5067729;28;20080;-67
2021/11/23 01:22:45;;;;;;;8.97;3.40;;;;;;;9.91;53.34;100039.59;5072527;28;20124;-67
2021/11/23 01:25:12;;;;;;;6.53;3.30;;;;;;;9.89;53.30;100029.84;5072423;28;20541;-72
2021/11/23 01:27:40;;;;;;;7.20;3.70;;;;;;;9.61;53.37;99984.84;5070786;28;20073;-72
2021/11/23 01:30:08;;;;;;;7.27;3.37;;;;;;;9.83;53.43;100026.22;5070494;28;20119;-72
2021/11/23 01:32:38;;;;;;;7.07;3.57;;;;;;;9.89;53.50;100027.88;5065435;28;20484;-69
2021/11/23 01:35:08;;;;;;;10.25;4.38;;;;;;;9.89;53.22;100021.47;5073593;28;20131;-68
2021/11/23 01:37:35;;;;;;;8.93;3.72;;;;;;;9.99;53.26;100026.16;5065094;28;20079;-68
2021/11/23 01:40:03;;;;;;;8.70;3.37;;;;;;;9.86;53.32;100010.88;5067519;28;20068;-66
2021/11/23 01:42:30;;;;;;;8.70;3.23;;;;;;;9.87;53.19;100029.28;5063088;28;20480;-67
2021/11/23 01:44:57;;;;;;;7.87;3.93;;;;;;;9.79;53.60;100027.09;5070926;28;20487;-69
2021/11/23 01:47:23;;;;;;;7.27;3.43;;;;;;;9.73;53.51;100018.75;5072555;28;20044;-68
2021/11/23 01:49:50;;;;;;;9.33;4.20;;;;;;;9.70;53.54;100030.47;5084366;28;20091;-68
2021/11/23 01:52:17;;;;;;;4.73;2.40;;;;;;;9.67;53.66;100024.66;5071163;28;20128;-74
2021/11/23 01:54:45;;;;;;;4.03;2.63;;;;;;;9.63;53.71;100018.81;5070721;28;20124;-76
2021/11/23 01:57:12;;;;;;;3.87;2.43;;;;;;;9.56;53.50;100004.38;5080826;28;20456;-72
2021/11/23 01:59:39;;;;;;;5.57;2.83;;;;;;;9.61;53.75;100015.50;5071312;28;20143;-75
2021/11/23 02:02:05;;;;;;;4.90;2.63;;;;;;;9.64;53.97;100014.94;5062473;28;20507;-75
2021/11/23 02:04:33;;;;;;;4.93;2.97;;;;;;;9.69;53.72;100017.66;5071943;28;20135;-73
2021/11/23 02:07:00;;;;;;;9.07;3.77;;;;;;;9.57;53.64;100008.84;5070600;28;20044;-73
2021/11/23 02:09:27;;;;;;;7.47;4.00;;;;;;;9.56;53.77;100028.63;5070439;28;20080;-71
2021/11/23 02:11:54;;;;;;;8.13;4.70;;;;;;;9.45;54.08;100017.53;5080572;28;20087;-71
2021/11/23 02:14:22;;;;;;;13.13;5.30;;;;;;;9.56;54.10;100020.25;5068766;28;20098;-71
2021/11/23 02:16:49;;;;;;;9.57;4.97;;;;;;;9.59;54.14;100025.25;5071925;28;20131;-71
2021/11/23 02:19:16;;;;;;;8.80;5.20;;;;;;;9.58;54.04;100021.66;5069966;28;20124;-71
2021/11/23 02:21:43;;;;;;;9.90;5.17;;;;;;;9.44;53.91;100020.63;5071899;28;20442;-71
2021/11/23 02:24:10;;;;;;;11.07;5.50;;;;;;;9.38;53.88;100021.75;5070317;28;20040;-75
2021/11/23 02:26:37;;;;;;;9.83;4.93;;;;;;;9.33;54.22;100024.53;5074274;28;20119;-74
2021/11/23 02:29:04;;;;;;;9.40;4.30;;;;;;;9.24;54.08;100016.78;5072185;28;20528;-74
2021/11/23 02:31:31;;;;;;;6.37;4.20;;;;;;;9.20;54.42;100010.13;5071199;28;20087;-72
2021/11/23 02:33:58;;;;;;;6.43;3.87;;;;;;;9.20;54.40;100021.25;5070341;28;20072;-73
2021/11/23 02:36:26;;;;;;;8.53;5.10;;;;;;;9.12;54.64;100019.03;5070494;28;20049;-71
2021/11/23 02:38:53;;;;;;;9.00;4.67;;;;;;;9.08;54.37;100020.75;5065838;28;20571;-71
2021/11/23 02:41:20;;;;;;;8.30;4.33;;;;;;;8.99;54.48;100008.50;5070174;28;20083;-71
2021/11/23 02:43:47;;;;;;;10.60;4.93;;;;;;;8.97;54.63;100011.59;5074618;28;20041;-70
2021/11/23 02:46:15;;;;;;;10.37;4.97;;;;;;;8.97;54.85;100010.75;5070522;28;20144;-69
2021/11/23 02:48:42;;;;;;;8.53;3.93;;;;;;;8.96;54.72;100009.09;5070497;28;20539;-71
2021/11/23 02:51:14;;;;;;;7.03;4.20;;;;;;;8.95;54.96;100002.66;5070981;28;20080;-71
2021/11/23 02:53:43;;;;;;;7.93;3.57;;;;;;;8.97;54.88;99985.69;5070224;28;20558;-70
2021/11/23 02:56:11;;;;;;;6.30;2.67;;;;;;;9.02;55.05;99991.22;5071369;28;20080;-72
2021/11/23 02:58:39;;;;;;;7.63;3.27;;;;;;;9.09;54.93;100002.91;5069177;28;20559;-74
2021/11/23 03:01:09;;;;;;;5.13;3.23;;;;;;;8.94;55.01;99966.75;5063392;28;20131;-75
2021/11/23 03:03:36;;;;;;;7.90;3.75;;;;;;;9.21;54.89;100000.63;5066905;28;20044;-74
2021/11/23 03:06:03;;;;;;;6.00;3.37;;;;;;;9.13;55.03;99990.09;5069815;28;20539;-74
2021/11/23 03:08:32;;;;;;;8.27;3.97;;;;;;;9.02;55.08;99975.38;5069902;28;20113;-74
2021/11/23 03:10:59;;;;;;;7.00;3.43;;;;;;;9.16;55.13;99991.47;5070866;28;20123;-74
2021/11/23 03:13:26;;;;;;;10.10;4.10;;;;;;;9.02;54.99;99986.53;5070673;28;20127;-75
2021/11/23 03:15:53;;;;;;;12.13;3.53;;;;;;;9.15;55.21;100000.94;5069942;28;20084;-75
2021/11/23 03:18:20;;;;;;;6.23;4.03;;;;;;;9.07;55.40;99988.44;5070087;28;20127;-75
2021/11/23 03:20:47;;;;;;;11.13;3.27;;;;;;;9.19;55.20;100010.38;5074628;28;20044;-74
2021/11/23 03:23:14;;;;;;;8.10;4.27;;;;;;;9.17;55.35;100013.47;5070102;28;20127;-75
2021/11/23 03:25:41;;;;;;;7.70;4.20;;;;;;;9.17;55.30;100010.69;5069732;28;20120;-76
2021/11/23 03:28:08;;;;;;;7.80;3.40;;;;;;;9.08;55.14;99995.66;5069865;28;20083;-74
2021/11/23 03:30:37;;;;;;;6.37;3.70;;;;;;;9.12;55.20;99991.19;5070846;28;20465;-75
2021/11/23 03:33:06;;;;;;;6.10;3.20;;;;;;;9.05;55.04;99989.84;5070759;28;20148;-70
2021/11/23 03:35:36;;;;;;;6.13;3.17;;;;;;;9.00;55.09;99994.31;5071068;28;20500;-70
2021/11/23 03:38:05;;;;;;;6.47;2.65;;;;;;;9.11;54.92;100017.38;5068163;28;20495;-70
2021/11/23 03:40:34;;;;;;;7.67;2.93;;;;;;;9.04;55.21;100018.81;5062929;28;20123;-76
2021/11/23 03:43:01;;;;;;;4.60;2.30;;;;;;;8.95;55.05;99985.13;5071199;28;20040;-76
2021/11/23 03:45:28;;;;;;;6.13;2.77;;;;;;;9.09;55.13;100000.13;5069334;28;20044;-75
2021/11/23 03:47:55;;;;;;;5.63;3.07;;;;;;;9.11;55.18;99999.84;5070576;28;20083;-73
2021/11/23 03:50:23;;;;;;;8.37;3.00;;;;;;;9.11;55.21;99992.31;5070661;28;20076;-71
2021/11/23 03:52:50;;;;;;;6.37;3.30;;;;;;;9.06;55.23;99986.78;5069497;28;20045;-70
2021/11/23 03:55:19;;;;;;;6.97;3.40;;;;;;;9.08;55.23;99989.28;5053268;28;20080;-70
2021/11/23 03:57:48;;;;;;;5.90;2.77;;;;;;;9.03;55.44;99962.28;5072814;28;20662;-70
2021/11/23 04:00:18;;;;;;;4.55;2.75;;;;;;;9.15;55.32;99990.63;5076262;28;20071;-70
2021/11/23 04:02:47;;;;;;;9.43;2.67;;;;;;;9.09;55.37;99983.41;5070130;28;20624;-68
2021/11/23 04:05:15;;;;;;;7.60;3.13;;;;;;;9.11;55.48;99999.84;5071298;28;20432;-68
2021/11/23 04:07:41;;;;;;;7.10;3.33;;;;;;;9.09;55.64;100002.91;5069113;28;20721;-69
2021/11/23 04:10:11;;;;;;;8.57;2.97;;;;;;;9.09;55.82;100008.47;5068053;28;20096;-69
2021/11/23 04:12:38;;;;;;;8.00;3.67;;;;;;;9.04;55.92;100004.88;5071053;28;20076;-69
2021/11/23 04:15:07;;;;;;;5.87;3.00;;;;;;;9.06;56.04;99992.34;5072806;28;20632;-69
2021/11/23 04:17:35;;;;;;;6.97;3.80;;;;;;;9.17;56.17;99993.97;5072767;28;20076;-69
2021/11/23 04:20:03;;;;;;;3.80;2.50;;;;;;;9.24;56.11;99988.94;5059228;28;20083;-70
2021/11/23 04:22:30;;;;;;;6.27;3.57;;;;;;;9.30;56.00;99981.38;5076007;28;20440;-70
2021/11/23 04:24:57;;;;;;;6.30;2.97;;;;;;;9.33;55.79;99979.97;5072630;28;20119;-70
2021/11/23 04:27:24;;;;;;;8.33;3.43;;;;;;;9.38;55.96;99985.53;5073079;28;20087;-68
2021/11/23 04:29:51;;;;;;;5.07;2.83;;;;;;;9.36;55.91;99980.22;5072585;28;20086;-71
2021/11/23 04:32:17;;;;;;;7.43;3.53;;;;;;;9.49;55.86;99995.47;5073267;28;20117;-71
2021/11/23 04:34:44;;;;;;;6.23;3.13;;;;;;;9.46;55.92;99980.16;5074464;28;20178;-71
2021/11/23 04:37:11;;;;;;;8.53;3.10;;;;;;;9.56;55.94;99990.44;5073529;28;20045;-70
2021/11/23 04:39:38;;;;;;;8.57;3.40;;;;;;;9.60;55.88;99988.72;5072168;28;20084;-72
2021/11/23 04:42:05;;;;;;;8.80;3.87;;;;;;;9.62;55.84;99989.28;5073900;28;20063;-68
2021/11/23 04:44:32;;;;;;;10.43;3.80;;;;;;;9.58;55.68;99979.00;5069386;28;20044;-70
2021/11/23 04:46:59;;;;;;;9.13;3.47;;;;;;;9.53;56.03;99974.28;5073576;28;20139;-69
2021/11/23 04:49:26;;;;;;;4.87;3.10;;;;;;;9.56;55.87;99982.06;5073521;28;20127;-69
2021/11/23 04:51:53;;;;;;;6.00;3.00;;;;;;;9.56;56.08;99984.84;5070321;28;20548;-73
2021/11/23 04:54:20;;;;;;;7.83;3.70;;;;;;;9.53;56.08;99973.44;5077450;28;20122;-76
2021/11/23 04:56:47;;;;;;;8.13;3.30;;;;;;;9.54;55.90;99978.75;5073530;28;20123;-73
2021/11/23 04:59:14;;;;;;;5.93;2.63;;;;;;;9.50;56.03;99977.63;5074117;28;20127;-70
2021/11/23 05:01:41;;;;;;;5.23;3.10;;;;;;;9.48;55.96;99971.53;5072480;28;20099;-71
2021/11/23 05:04:07;;;;;;;3.97;2.70;;;;;;;9.46;56.17;99970.97;5072116;28;20049;-71
2021/11/23 05:06:34;;;;;;;5.20;3.00;;;;;;;9.44;56.05;99959.28;5074326;28;20048;-71
2021/11/23 05:09:02;;;;;;;5.67;2.63;;;;;;;9.28;55.92;99929.84;5072843;28;20084;-72
2021/11/23 05:11:32;;;;;;;5.43;2.60;;;;;;;9.61;56.17;99976.47;5073227;28;20132;-72
2021/11/23 05:13:59;;;;;;;6.88;2.90;;;;;;;9.57;56.16;99967.03;5070642;28;20072;-70
2021/11/23 05:16:26;;;;;;;5.93;2.50;;;;;;;9.69;56.09;99981.44;5071608;28;20076;-73
2021/11/23 05:18:53;;;;;;;5.60;2.77;;;;;;;9.76;56.04;99989.47;5067516;28;20083;-72
2021/11/23 05:21:19;;;;;;;6.20;3.37;;;;;;;9.79;56.12;99986.09;5072455;28;20082;-71
2021/11/23 05:23:46;;;;;;;5.20;2.93;;;;;;;9.74;56.15;99977.75;5072963;28;20411;-72
2021/11/23 05:26:13;;;;;;;9.40;3.20;;;;;;;9.49;55.95;99935.00;5072279;28;20080;-70
2021/11/23 05:28:40;;;;;;;6.43;2.87;;;;;;;9.77;56.15;99984.72;5069358;28;20144;-73
2021/11/23 05:31:07;;;;;;;4.47;3.27;;;;;;;9.73;56.18;100001.19;5072011;28;20519;-69
2021/11/23 05:33:34;;;;;;;7.33;3.20;;;;;;;9.67;56.30;99988.41;5071666;28;20044;-67
2021/11/23 05:36:01;;;;;;;4.20;2.77;;;;;;;9.72;56.25;99997.59;5072009;28;20123;-67
2021/11/23 05:38:28;;;;;;;4.00;2.33;;;;;;;9.68;55.93;100004.88;5072042;28;20136;-78
2021/11/23 05:40:55;;;;;;;4.43;2.63;;;;;;;9.69;56.26;100000.94;5071367;28;20119;-77
2021/11/23 05:43:22;;;;;;;4.43;2.53;;;;;;;9.71;56.08;100003.47;5071777;28;20076;-69
2021/11/23 05:45:49;;;;;;;5.43;2.97;;;;;;;9.78;56.11;100003.13;5072672;28;20076;-76
2021/11/23 05:48:16;;;;;;;8.23;3.00;;;;;;;9.78;56.23;100014.25;5069630;28;20128;-66
2021/11/23 05:50:43;;;;;;;6.97;2.43;;;;;;;9.76;56.02;100010.94;5071571;28;20103;-68
2021/11/23 05:53:09;;;;;;;10.50;2.27;;;;;;;9.54;55.89;99975.97;5067113;28;20132;-75
2021/11/23 05:55:36;;;;;;;5.03;2.30;;;;;;;9.59;56.05;99964.75;5068216;28;20084;-70
2021/11/23 05:58:04;;;;;;;9.77;3.80;;;;;;;9.66;55.87;99978.38;5077756;28;20048;-67
2021/11/23 06:00:31;;;;;;;7.07;3.33;;;;;;;9.68;56.08;99995.66;5072388;28;20156;-66
2021/11/23 06:02:59;;;;;;;8.50;3.80;;;;;;;9.61;56.03;99998.78;5072330;28;20072;-68
2021/11/23 06:05:26;;;;;;;6.80;3.67;;;;;;;9.48;56.07;99979.91;5072082;28;20044;-74
2021/11/23 06:07:53;;;;;;;7.80;3.20;;;;;;;9.55;55.76;99999.09;5067885;28;20036;-71
2021/11/23 06:10:20;;;;;;;7.73;3.47;;;;;;;9.56;56.06;100012.72;5070544;28;20140;-72
2021/11/23 06:12:49;;;;;;;10.63;4.00;;;;;;;9.43;55.94;100002.19;5070787;28;20183;-71
2021/11/23 06:15:15;;;;;;;15.93;5.60;;;;;;;9.39;56.08;100004.72;5071655;28;20486;-68
2021/11/23 06:17:42;;;;;;;21.67;7.80;;;;;;;9.43;56.33;100014.19;5071419;28;20080;-67
2021/11/23 06:20:10;;;;;;;25.13;8.03;;;;;;;9.41;56.36;100010.03;5067519;28;20103;-73
2021/11/23 06:22:37;;;;;;;26.23;8.53;;;;;;;9.42;56.37;100004.16;5067774;28;20532;-68
2021/11/23 06:25:08;;;;;;;22.83;9.30;;;;;;;9.41;56.27;100015.59;5067739;28;20080;-66
2021/11/23 06:27:36;;;;;;;19.47;7.80;;;;;;;9.45;56.51;100013.91;5067322;28;20079;-67
2021/11/23 06:30:05;;;;;;;22.07;9.50;;;;;;;9.51;56.48;100009.16;5078197;28;20109;-63
2021/11/23 06:32:32;;;;;;;16.63;7.40;;;;;;;9.47;56.33;99997.75;5071800;28;20140;-65
2021/11/23 06:34:59;;;;;;;14.90;5.27;;;;;;;9.57;56.44;100017.19;5072025;28;20380;-64
2021/11/23 06:37:26;;;;;;;14.57;6.03;;;;;;;9.61;56.54;100009.09;5070143;28;20111;-60
2021/11/23 06:39:53;;;;;;;9.67;4.23;;;;;;;9.59;56.23;99997.38;5069719;28;20080;-59
2021/11/23 06:42:20;;;;;;;13.83;4.57;;;;;;;9.56;56.31;99979.28;5068533;28;20495;-58
2021/11/23 06:44:47;;;;;;;14.73;6.50;;;;;;;9.73;56.38;99998.41;5070906;28;20475;-57
2021/11/23 06:47:14;;;;;;;9.07;4.10;;;;;;;9.69;56.39;99989.78;5067160;28;20503;-56
2021/11/23 06:49:41;;;;;;;10.00;3.67;;;;;;;9.80;56.25;100006.47;5068780;28;20044;-55
2021/11/23 06:52:08;;;;;;;12.73;4.00;;;;;;;9.94;56.24;100018.63;5068691;28;20072;-61
2021/11/23 06:54:36;;;;;;;7.20;3.70;;;;;;;9.99;56.20;100015.81;5073271;28;20098;-57
2021/11/23 06:57:03;;;;;;;10.07;3.20;;;;;;;9.78;56.02;99983.59;5069755;28;20123;-57
2021/11/23 06:59:35;;;;;;;7.37;2.40;;;;;;;9.97;56.22;100015.25;5070829;28;20082;-55
2021/11/23 07:02:02;;;;;;;8.93;3.17;;;;;;;10.00;56.05;100027.81;5069613;28;20072;-56
2021/11/23 07:04:30;;;;;;;6.73;3.00;;;;;;;10.08;55.96;100041.94;5066056;28;20487;-57
2021/11/23 07:06:57;;;;;;;8.67;2.47;;;;;;;10.09;56.00;100031.66;5068542;28;20044;-56
2021/11/23 07:09:24;;;;;;;5.67;2.47;;;;;;;10.05;56.13;100045.34;5085952;28;20102;-56
2021/11/23 07:11:52;;;;;;;8.20;2.87;;;;;;;9.94;56.14;100038.97;5069021;28;20452;-57
2021/11/23 07:14:20;;;;;;;3.60;2.10;;;;;;;9.91;56.09;100041.50;5067203;28;20079;-58
2021/11/23 07:16:47;;;;;;;5.50;2.60;;;;;;;9.89;56.17;100032.63;5058914;28;20087;-58
2021/11/23 07:19:15;;;;;;;5.90;2.70;;;;;;;9.85;56.30;100031.53;5067695;28;20499;-58
2021/11/23 07:21:41;;;;;;;6.70;3.07;;;;;;;9.88;56.14;100047.66;5070380;28;20083;-58
2021/11/23 07:24:09;;;;;;;3.57;2.17;;;;;;;9.86;56.06;100039.59;5074979;28;20347;-57
2021/11/23 07:26:39;;;;;;;5.20;2.63;;;;;;;9.73;56.15;100029.91;5071122;28;20507;-57
2021/11/23 07:29:07;;;;;;;5.30;3.10;;;;;;;9.72;56.17;100044.16;5069627;28;20136;-57
2021/11/23 07:31:35;;;;;;;7.00;3.20;;;;;;;9.62;56.31;100047.00;5068261;28;20088;-58
2021/11/23 07:34:03;;;;;;;3.63;2.47;;;;;;;9.56;56.33;100051.75;5069352;28;20080;-58
2021/11/23 07:36:30;;;;;;;5.80;2.97;;;;;;;9.43;56.51;100035.63;5069866;28;20076;-57
2021/11/23 07:39:01;;;;;;;7.30;3.50;;;;;;;9.47;56.56;100048.75;5068811;28;20501;-58
2021/11/23 07:41:29;;;;;;;5.27;3.67;;;;;;;9.43;56.63;100047.63;5070035;28;20475;-58
2021/11/23 07:43:57;;;;;;;5.10;3.57;;;;;;;9.36;56.74;100037.91;5082584;28;20080;-58
2021/11/23 07:46:25;;;;;;;8.17;3.83;;;;;;;9.18;56.83;100040.22;5065042;28;20102;-58
2021/11/23 07:48:54;;;;;;;7.53;3.20;;;;;;;9.14;57.02;100058.59;5067608;28;20135;-59
2021/11/23 07:51:22;;;;;;;7.23;4.20;;;;;;;9.10;57.00;100063.09;5070467;28;20064;-58
2021/11/23 07:53:50;;;;;;;8.73;3.30;;;;;;;9.08;57.15;100051.38;5072319;28;20076;-58
2021/11/23 07:56:17;;;;;;;6.10;3.77;;;;;;;9.11;57.14;100061.13;5075280;28;20567;-57
2021/11/23 07:58:44;;;;;;;10.27;3.10;;;;;;;9.18;57.17;100061.66;5073947;28;20087;-57
2021/11/23 08:01:11;;;;;;;4.13;3.27;;;;;;;9.19;56.92;100053.00;5074819;28;20094;-57
2021/11/23 08:03:38;;;;;;;5.33;3.07;;;;;;;9.64;56.74;100078.19;5074369;28;20052;-57
2021/11/23 08:06:07;;;;;;;5.87;3.63;;;;;;;9.87;56.60;100097.03;5073332;28;20064;-56
2021/11/23 08:08:34;;;;;;;7.03;3.57;;;;;;;10.09;56.47;100099.44;5070012;28;20051;-58
2021/11/23 08:11:02;;;;;;;6.23;3.43;;;;;;;10.41;56.58;100093.38;5075709;28;20045;-58
2021/11/23 08:13:29;;;;;;;11.50;4.40;;;;;;;10.84;55.84;100095.56;5074641;28;20150;-57
2021/11/23 08:15:57;;;;;;;9.57;4.70;;;;;;;11.18;55.62;100092.69;5063383;28;20075;-58
2021/11/23 08:18:24;;;;;;;5.83;4.17;;;;;;;11.64;54.89;100111.72;5074532;28;20526;-57
2021/11/23 08:20:50;;;;;;;7.30;4.53;;;;;;;12.05;54.38;100108.44;5074153;28;20123;-56
2021/11/23 08:23:17;;;;;;;11.70;4.63;;;;;;;12.45;53.97;100106.16;5075365;28;20095;-56
2021/11/23 08:25:46;;;;;;;8.60;4.73;;;;;;;12.88;53.59;100106.81;5073178;28;20082;-56
2021/11/23 08:28:13;;;;;;;10.43;4.50;;;;;;;13.25;53.32;100099.47;5078004;28;20083;-56
2021/11/23 08:30:41;;;;;;;15.57;7.03;;;;;;;13.78;53.08;100120.56;5095371;28;20139;-58
2021/11/23 08:33:08;;;;;;;12.20;6.87;;;;;;;14.20;52.46;100119.38;5095402;28;20131;-58
2021/11/23 08:35:35;;;;;;;14.43;7.70;;;;;;;14.63;52.10;100127.38;5083820;28;20082;-57
2021/11/23 08:38:01;;;;;;;11.17;6.13;;;;;;;14.73;51.63;100129.94;5074853;28;20115;-57
2021/11/23 08:40:28;;;;;;;8.70;5.83;;;;;;;14.48;51.10;100124.94;5074390;28;20087;-57
2021/11/23 08:42:56;;;;;;;14.97;7.00;;;;;;;13.69;50.81;100110.09;5056104;28;20554;-58
2021/11/23 08:45:23;;;;;;;12.70;6.60;;;;;;;13.24;51.04;100121.06;5067171;28;20044;-58
2021/11/23 08:47:50;;;;;;;11.97;7.97;;;;;;;12.75;51.29;100113.22;5074897;28;20052;-58
2021/11/23 08:50:18;;;;;;;15.07;8.20;;;;;;;12.70;51.91;100136.56;5060731;28;20071;-57
2021/11/23 08:52:45;;;;;;;12.33;6.73;;;;;;;12.64;52.06;100134.13;5072810;28;20119;-56
2021/11/23 08:55:12;;;;;;;15.63;7.27;;;;;;;12.51;52.09;100142.19;5077599;28;20452;-57
2021/11/23 08:57:39;;;;;;;12.13;7.47;;;;;;;12.61;52.16;100120.75;5072801;28;20063;-57
2021/11/23 09:00:20;;;;;;;10.10;6.53;;;;;;;12.93;52.12;100148.78;5074257;28;20088;-56
2021/11/23 09:02:49;;;;;;;11.27;6.30;;;;;;;13.39;51.60;100156.41;5074743;28;20128;-57
2021/11/23 09:05:19;;;;;;;;;;;;;;;13.05;52.05;100146.31;5074181;28;20053;-55
2021/11/23 09:07:46;;;;;;;14.73;6.40;;;;;;;13.11;51.41;100146.25;5074145;28;19968;-58
2021/11/23 09:10:18;;;;;;;11.47;6.80;;;;;;;13.67;51.33;100150.81;5073328;28;20099;-56
2021/11/23 09:12:48;;;;;;;12.77;7.13;;;;;;;14.89;50.23;100145.28;5074560;28;20280;-57
2021/11/23 09:15:16;;;;;;;13.85;7.05;;;;;;;16.20;48.83;100157.22;5067745;28;20461;-57
2021/11/23 09:17:43;;;;;;;11.85;6.80;;;;;;;17.56;46.80;100155.84;5070636;28;20080;-57
2021/11/23 09:20:12;;;;;;;11.80;6.70;;;;;;;18.51;45.15;100131.94;5076278;28;20102;-58
2021/11/23 09:22:42;;;;;;;17.38;8.15;;;;;;;19.25;44.11;100133.13;5072466;28;20076;-56
2021/11/23 09:25:11;;;;;;;16.75;8.30;;;;;;;20.19;42.42;100137.16;5066127;28;20101;-58
2021/11/23 09:27:39;;;;;;;9.88;7.55;;;;;;;20.94;41.62;100137.47;5072388;28;20072;-56
2021/11/23 09:30:12;;;;;;;13.40;7.78;;;;;;;21.47;40.67;100141.03;5071801;28;20124;-58
2021/11/23 09:32:41;;;;;;;9.65;7.07;;;;;;;22.03;39.64;100139.22;5082959;28;20610;-55
2021/11/23 09:35:11;;;;;;;10.10;6.90;;;;;;;22.59;38.65;100145.44;5073045;28;20370;-58
2021/11/23 09:37:38;;;;;;;;;;;;;;;22.76;41.56;100155.59;5073138;28;20463;-58
2021/11/23 09:40:07;;;;;;;10.70;6.68;;;;;;;23.63;37.54;100159.84;5076120;28;20014;-59
2021/11/23 09:42:34;;;;;;;8.07;6.63;;;;;;;24.10;36.55;100160.69;5074719;28;20087;-58
2021/11/23 09:45:03;;;;;;;10.07;6.88;;;;;;;23.93;36.01;100149.78;5084975;28;20040;-58
2021/11/23 09:47:31;;;;;;;14.02;8.82;;;;;;;23.77;35.74;100158.50;5094025;28;20071;-58
2021/11/23 09:50:00;;;;;;;11.57;8.05;;;;;;;23.39;35.71;100171.59;5074417;28;20045;-58
2021/11/23 09:52:27;;;;;;;12.05;8.90;;;;;;;23.12;35.52;100168.59;5057369;28;20041;-58
2021/11/23 09:54:54;;;;;;;15.07;9.90;;;;;;;23.09;35.59;100165.69;5090390;28;20123;-58
2021/11/23 09:57:21;;;;;;;10.95;6.30;;;;;;;23.30;35.10;100168.97;5080950;28;20084;-58
2021/11/23 09:59:47;;;;;;;12.13;7.72;;;;;;;23.54;34.67;100169.84;5073078;28;20160;-58
2021/11/23 10:02:28;;;;;;;8.95;6.47;;;;;;;23.58;34.70;100162.19;5073293;28;20094;-58
2021/11/23 10:05:06;;;;;;;20.05;8.52;;;;;;;23.91;33.86;100175.03;5072882;28;20048;-58
2021/11/23 10:07:45;;;;;;;10.88;7.30;;;;;;;24.19;33.34;100169.00;5077143;28;20101;-58
2021/11/23 10:10:20;;;;;;;13.63;8.00;;;;;;;24.47;33.09;100171.50;5073365;28;20135;-58
2021/11/23 10:13:05;;;;;;;12.85;8.57;;;;;;;24.32;33.18;100151.28;5069108;28;20044;-58
2021/11/23 10:15:35;;;;;;;12.23;10.88;;;;;;;24.84;32.02;100177.34;5071803;28;20131;-58
2021/11/23 10:18:28;;;;;;;12.52;8.68;;;;;;;24.74;32.49;100172.31;5070754;28;20087;-58
2021/11/23 10:20:57;;;;;;;13.27;8.55;;;;;;;24.88;31.31;100141.09;5068524;28;20127;-58
2021/11/23 10:23:33;;;;;;;10.48;7.28;;;;;;;25.01;31.74;100161.66;5065912;28;20047;-58
2021/11/23 10:26:14;;;;;;;11.98;7.88;;;;;;;25.20;31.05;100172.97;5072612;28;20465;-58
2021/11/23 10:28:48;;;;;;;12.88;7.28;;;;;;;25.35;30.54;100173.97;5072550;28;20084;-58
2021/11/23 10:31:16;;;;;;;11.52;7.57;;;;;;;25.40;30.12;100181.34;5074339;28;20161;-58
2021/11/23 10:33:44;;;;;;;14.02;7.93;;;;;;;25.56;29.98;100181.13;5072021;28;20048;-58
2021/11/23 10:36:16;;;;;;;16.48;7.65;;;;;;;25.65;29.64;100168.16;5071077;28;20098;-58
2021/11/23 10:38:44;;;;;;;11.00;6.63;;;;;;;25.90;29.40;100179.88;5071846;28;20088;-59
2021/11/23 10:41:16;;;;;;;12.20;6.78;;;;;;;26.09;28.90;100183.75;5057696;28;20092;-59
2021/11/23 10:43:44;;;;;;;14.27;7.07;;;;;;;25.84;29.10;100177.78;5052575;28;20676;-58
2021/11/23 10:46:20;;;;;;;17.23;7.38;;;;;;;25.78;29.39;100180.16;5060085;28;20174;-58
2021/11/23 10:48:58;;;;;;;16.80;8.57;;;;;;;25.90;29.18;100196.22;5072587;28;20045;-58
2021/11/23 10:51:35;;;;;;;14.05;7.50;;;;;;;26.21;28.85;100189.16;5074888;28;20103;-58
2021/11/23 10:54:15;;;;;;;18.88;8.10;;;;;;;26.37;28.67;100172.53;5071995;28;20052;-58
2021/11/23 10:56:57;;;;;;;13.18;6.40;;;;;;;26.74;28.57;100187.97;5069365;28;20087;-58
2021/11/23 10:59:29;;;;;;;19.98;5.90;;;;;;;26.39;28.23;100198.72;5057809;28;20068;-58
2021/11/23 11:01:57;;;;;;;13.10;5.55;;;;;;;24.93;29.37;100202.78;5092501;28;20118;-58
2021/11/23 11:04:26;;;;;;;12.25;5.80;;;;;;;23.68;30.53;100194.97;5071858;28;20045;-58
2021/11/23 11:06:56;;;;;;;19.40;6.63;;;;;;;22.68;30.96;100177.38;5071185;28;20143;-57
2021/11/23 11:09:26;;;;;;;10.35;5.05;;;;;;;22.05;31.72;100186.00;5070237;28;20044;-58
2021/11/23 11:11:53;;;;;;;9.13;4.60;;;;;;;21.64;32.45;100193.84;5070530;28;20047;-59
2021/11/23 11:14:21;;;;;;;8.68;4.45;;;;;;;21.27;32.88;100181.81;5064047;28;20044;-58
2021/11/23 11:16:49;;;;;;;7.95;5.72;;;;;;;21.45;32.68;100194.53;5061377;28;20080;-57
2021/11/23 11:19:16;;;;;;;10.40;4.32;;;;;;;22.68;32.05;100197.31;5071810;28;20095;-58
2021/11/23 11:21:49;;;;;;;10.48;4.43;;;;;;;24.09;30.98;100188.38;5067169;28;20080;-57
2021/11/23 11:24:21;;;;;;;7.05;3.75;;;;;;;25.58;29.54;100193.84;5068286;28;20049;-58
2021/11/23 11:26:53;;;;;;;9.35;5.28;;;;;;;26.85;27.45;100206.84;5071149;28;20137;-58
2021/11/23 11:29:29;;;;;;;12.68;5.78;;;;;;;27.69;27.37;100194.53;5079320;28;20075;-58
2021/11/23 11:31:59;;;;;;;8.07;4.18;;;;;;;28.08;26.40;100195.44;5059427;28;20076;-58
2021/11/23 11:34:36;;;;;;;6.53;3.45;;;;;;;27.10;27.28;100198.38;5052117;28;20465;-58